createdAt,value
2022-08-10T00:01:54.810Z,2.10
2022-08-10T00:04:24.399Z,2.13
2022-08-10T00:06:56.014Z,1.85
2022-08-10T00:09:25.577Z,1.70
2022-08-10T00:11:54.032Z,1.70
2022-08-10T00:14:23.207Z,1.77
2022-08-10T00:16:51.822Z,1.73
2022-08-10T00:19:20.138Z,2.15
2022-08-10T00:21:51.299Z,1.90
2022-08-10T00:24:21.085Z,1.98
2022-08-10T00:27:51.880Z,1.80
2022-08-10T00:29:38.977Z,2.05
2022-08-10T00:32:07.984Z,2.13
2022-08-10T00:34:36.810Z,1.83
2022-08-10T00:37:05.653Z,2.05
2022-08-10T00:39:39.417Z,1.60
2022-08-10T00:42:09.731Z,1.92
2022-08-10T00:44:39.572Z,2.00
2022-08-10T00:47:21.299Z,1.83
2022-08-10T00:49:57.702Z,2.17
2022-08-10T00:52:28.028Z,2.03
2022-08-10T00:54:59.791Z,2.28
2022-08-10T00:57:29.022Z,2.00
2022-08-10T00:59:58.067Z,2.13
2022-08-10T01:02:30.709Z,1.88
2022-08-10T01:05:02.128Z,2.03
2022-08-10T01:07:53.671Z,2.22
2022-08-10T01:10:35.146Z,1.90
2022-08-10T01:13:09.947Z,2.22
2022-08-10T01:15:54.141Z,1.85
2022-08-10T01:18:29.949Z,2.30
2022-08-10T01:21:34.057Z,2.03
2022-08-10T01:24:28.426Z,2.10
2022-08-10T01:27:27.287Z,2.67
2022-08-10T01:30:07.861Z,2.50
2022-08-10T01:32:46.830Z,2.38
2022-08-10T01:35:21.104Z,1.90
2022-08-10T01:37:57.976Z,2.10
2022-08-10T01:40:29.727Z,2.22
2022-08-10T01:43:08.653Z,2.35
2022-08-10T01:45:44.945Z,2.58
2022-08-10T01:48:29.719Z,2.03
2022-08-10T01:51:05.860Z,2.38
2022-08-10T01:53:43.138Z,2.22
2022-08-10T01:56:14.819Z,2.20
2022-08-10T01:58:45.248Z,2.33
2022-08-10T02:01:18.675Z,2.10
2022-08-10T02:04:03.068Z,2.58
2022-08-10T02:06:36.806Z,2.42
2022-08-10T02:09:07.649Z,2.28
2022-08-10T02:12:06.611Z,1.90
2022-08-10T02:14:32.895Z,2.90
2022-08-10T02:17:07.531Z,2.38
2022-08-10T02:19:39.335Z,2.30
2022-08-10T02:22:36.697Z,2.55
2022-08-10T02:24:59.524Z,2.30
2022-08-10T02:27:28.669Z,2.55
2022-08-10T02:29:58.788Z,2.50
2022-08-10T02:32:38.116Z,2.45
2022-08-10T02:35:21.800Z,2.22
2022-08-10T02:37:54.181Z,2.30
2022-08-10T02:45:15.617Z,2.22
2022-08-10T02:45:24.219Z,2.30
2022-08-10T02:46:18.298Z,2.55
2022-08-10T02:48:59.425Z,2.53
2022-08-10T02:52:07.970Z,2.35
2022-08-10T02:54:27.863Z,2.63
2022-08-10T02:57:04.095Z,2.58
2022-08-10T02:59:39.749Z,3.25
2022-08-10T03:02:14.954Z,3.22
2022-08-10T03:04:57.112Z,2.50
2022-08-10T03:07:43.929Z,2.60
2022-08-10T03:10:18.843Z,2.97
2022-08-10T03:12:51.689Z,2.70
2022-08-10T03:15:21.794Z,2.85
2022-08-10T03:17:56.768Z,3.03
2022-08-10T03:20:38.245Z,2.80
2022-08-10T03:23:11.941Z,2.90
2022-08-10T03:25:41.103Z,2.83
2022-08-10T03:28:22.810Z,2.80
2022-08-10T03:30:51.776Z,2.47
2022-08-10T03:33:22.101Z,2.60
2022-08-10T03:36:41.907Z,3.03
2022-08-10T03:38:41.675Z,2.90
2022-08-10T03:41:15.953Z,2.72
2022-08-10T03:43:49.075Z,3.28
2022-08-10T03:46:21.074Z,3.20
2022-08-10T03:48:53.362Z,2.65
2022-08-10T03:51:26.426Z,3.30
2022-08-10T03:54:04.470Z,2.95
2022-08-10T03:56:37.433Z,3.17
2022-08-10T03:59:08.163Z,2.97
2022-08-10T04:02:44.857Z,3.08
2022-08-10T04:04:26.127Z,3.10
2022-08-10T04:06:58.625Z,3.00
2022-08-10T04:09:43.037Z,3.17
2022-08-10T04:12:17.682Z,3.10
2022-08-10T04:14:50.623Z,3.33
2022-08-10T04:18:04.121Z,2.95
2022-08-10T04:20:17.560Z,3.72
2022-08-10T04:22:51.089Z,3.20
2022-08-10T04:25:20.831Z,3.50
2022-08-10T04:27:50.029Z,3.33
2022-08-10T04:30:18.670Z,3.22
2022-08-10T04:32:51.229Z,3.25
2022-08-10T04:35:21.903Z,3.28
2022-08-10T04:37:52.959Z,3.28
2022-08-10T04:40:29.316Z,2.80
2022-08-10T04:43:05.735Z,3.42
2022-08-10T04:45:47.579Z,3.78
2022-08-10T04:48:40.160Z,3.55
2022-08-10T04:51:11.035Z,3.63
2022-08-10T04:54:05.071Z,3.20
2022-08-10T04:56:39.798Z,3.30
2022-08-10T04:59:09.814Z,3.80
2022-08-10T05:02:28.248Z,3.50
2022-08-10T05:04:35.810Z,3.88
2022-08-10T05:07:15.819Z,3.45
2022-08-10T05:10:01.557Z,3.13
2022-08-10T05:12:32.563Z,3.30
2022-08-10T05:15:05.518Z,3.45
2022-08-10T05:17:34.802Z,4.25
2022-08-10T05:20:06.869Z,3.95
2022-08-10T05:22:37.751Z,3.90
2022-08-10T05:25:10.019Z,3.58
2022-08-10T05:27:39.384Z,4.25
2022-08-10T05:30:09.450Z,3.60
2022-08-10T05:32:56.814Z,4.07
2022-08-10T05:35:28.257Z,4.07
2022-08-10T05:38:08.938Z,3.80
2022-08-10T05:40:46.157Z,3.90
2022-08-10T05:43:17.822Z,4.05
2022-08-10T05:46:18.233Z,4.07
2022-08-10T05:48:41.561Z,4.18
2022-08-10T05:51:25.350Z,4.00
2022-08-10T05:54:03.570Z,3.92
2022-08-10T05:56:55.378Z,4.55
2022-08-10T06:00:30.781Z,3.85
2022-08-10T06:02:33.144Z,4.15
2022-08-10T06:05:07.623Z,4.57
2022-08-10T06:07:42.244Z,4.45
2022-08-10T06:10:31.224Z,4.00
2022-08-10T06:13:30.173Z,4.03
2022-08-10T06:16:06.728Z,4.10
2022-08-10T06:18:35.539Z,4.28
2022-08-10T06:21:04.427Z,4.00
2022-08-10T06:23:33.999Z,4.10
2022-08-10T06:26:10.262Z,3.75
2022-08-10T06:28:54.009Z,3.85
2022-08-10T06:31:47.655Z,4.05
2022-08-10T06:34:22.337Z,4.53
2022-08-10T06:36:53.050Z,4.20
2022-08-10T06:39:33.466Z,4.32
2022-08-10T06:42:16.110Z,4.13
2022-08-10T06:44:56.996Z,4.10
2022-08-10T06:47:31.225Z,4.10
2022-08-10T06:50:04.922Z,4.20
2022-08-10T06:52:39.257Z,4.38
2022-08-10T06:55:16.919Z,4.38
2022-08-10T06:57:59.747Z,4.13
2022-08-10T07:00:33.857Z,4.30
2022-08-10T07:03:10.023Z,4.20
2022-08-10T07:05:46.885Z,4.20
2022-08-10T07:08:19.376Z,4.72
2022-08-10T07:10:49.166Z,4.45
2022-08-10T07:14:14.670Z,4.15
2022-08-10T07:16:13.575Z,3.92
2022-08-10T07:18:44.070Z,4.45
2022-08-10T07:21:14.370Z,4.47
2022-08-10T07:23:56.973Z,3.92
2022-08-10T07:26:30.590Z,3.75
2022-08-10T07:29:00.709Z,4.38
2022-08-10T07:31:55.704Z,3.88
2022-08-10T07:34:29.043Z,3.80
2022-08-10T07:37:03.054Z,4.43
2022-08-10T07:40:02.885Z,3.92
2022-08-10T07:42:32.132Z,4.05
2022-08-10T07:45:01.157Z,4.28
2022-08-10T07:47:46.390Z,4.45
2022-08-10T07:50:25.789Z,4.38
2022-08-10T07:52:58.361Z,4.07
2022-08-10T07:56:03.795Z,3.97
2022-08-10T07:58:18.373Z,3.85
2022-08-10T08:00:48.122Z,4.18
2022-08-10T08:03:22.251Z,4.05
2022-08-10T08:06:03.266Z,4.18
2022-08-10T08:08:35.883Z,4.28
2022-08-10T08:11:05.490Z,4.20
2022-08-10T08:13:37.342Z,4.32
2022-08-10T08:16:18.304Z,3.95
2022-08-10T08:19:24.061Z,4.57
2022-08-10T08:24:07.380Z,4.25
2022-08-10T08:24:36.375Z,4.05
2022-08-10T08:27:07.872Z,3.80
2022-08-10T08:29:40.390Z,3.70
2022-08-10T08:32:09.727Z,3.88
2022-08-10T08:34:42.305Z,4.25
2022-08-10T08:37:12.489Z,3.70
2022-08-10T08:39:48.525Z,4.22
2022-08-10T08:42:39.662Z,3.70
2022-08-10T08:45:17.816Z,3.80
2022-08-10T08:48:13.732Z,4.05
2022-08-10T08:51:01.831Z,3.45
2022-08-10T08:54:01.929Z,3.70
2022-08-10T08:56:45.739Z,3.80
2022-08-10T08:59:33.517Z,3.60
2022-08-10T09:02:14.470Z,3.33
2022-08-10T09:04:57.542Z,3.80
2022-08-10T09:08:02.801Z,3.60
2022-08-10T09:10:52.131Z,4.18
2022-08-10T09:13:29.918Z,3.63
2022-08-10T09:16:11.741Z,3.90
2022-08-10T09:18:49.420Z,3.47
2022-08-10T09:21:31.393Z,3.60
2022-08-10T09:24:07.223Z,3.08
2022-08-10T09:26:46.065Z,3.50
2022-08-10T09:29:19.181Z,3.22
2022-08-10T09:32:54.890Z,3.58
2022-08-10T09:36:26.579Z,3.30
2022-08-10T09:38:01.820Z,3.30
2022-08-10T09:41:00.577Z,3.35
2022-08-10T09:43:47.482Z,3.95
2022-08-10T09:46:27.686Z,3.67
2022-08-10T09:49:05.743Z,2.92
2022-08-10T09:51:51.534Z,2.92
2022-08-10T09:54:48.987Z,2.70
2022-08-10T09:57:55.134Z,2.95
2022-08-10T10:00:24.176Z,2.90
2022-08-10T10:03:10.101Z,2.90
2022-08-10T10:05:52.398Z,2.95
2022-08-10T10:08:37.352Z,2.92
2022-08-10T10:11:21.340Z,3.20
2022-08-10T10:14:10.527Z,3.20
2022-08-10T10:17:03.568Z,2.75
2022-08-10T10:19:47.624Z,2.90
2022-08-10T10:22:38.031Z,2.47
2022-08-10T10:25:20.850Z,2.72
2022-08-10T10:28:06.934Z,2.42
2022-08-10T10:30:46.363Z,2.42
2022-08-10T10:33:20.513Z,2.50
2022-08-10T10:36:12.044Z,2.30
2022-08-10T10:38:43.073Z,2.58
2022-08-10T10:41:19.351Z,2.90
2022-08-10T10:44:00.649Z,2.28
2022-08-10T10:46:49.716Z,2.78
2022-08-10T10:49:31.613Z,2.17
2022-08-10T10:52:06.185Z,2.88
2022-08-10T10:54:43.413Z,2.65
2022-08-10T10:57:20.528Z,2.60
2022-08-10T10:59:59.041Z,2.80
2022-08-10T11:02:58.643Z,2.70
2022-08-10T11:05:44.298Z,2.70
2022-08-10T11:08:19.588Z,3.00
2022-08-10T11:11:05.362Z,2.38
2022-08-10T11:14:25.832Z,2.63
2022-08-10T11:16:43.341Z,2.53
2022-08-10T11:19:21.068Z,2.80
2022-08-10T11:22:05.558Z,2.70
2022-08-10T11:24:48.664Z,2.35
2022-08-10T11:27:26.447Z,2.70
2022-08-10T11:30:03.795Z,2.88
2022-08-10T11:32:44.117Z,2.60
2022-08-10T11:35:25.537Z,2.47
2022-08-10T11:38:31.507Z,2.38
2022-08-10T11:40:59.105Z,2.30
2022-08-10T11:43:50.457Z,2.42
2022-08-10T11:46:28.878Z,2.67
2022-08-10T11:49:10.500Z,2.60
2022-08-10T11:51:48.649Z,2.53
2022-08-10T11:54:26.600Z,2.92
2022-08-10T11:57:02.285Z,2.58
2022-08-10T11:59:57.876Z,2.70
2022-08-10T12:02:32.784Z,2.72
2022-08-10T12:05:07.037Z,2.28
2022-08-10T12:10:09.932Z,2.72
2022-08-10T12:10:40.267Z,2.67
2022-08-10T12:13:12.949Z,2.40
2022-08-10T12:15:55.580Z,2.33
2022-08-10T12:18:34.013Z,2.55
2022-08-10T12:21:21.986Z,2.65
2022-08-10T12:24:02.965Z,2.88
2022-08-10T12:26:39.564Z,2.67
2022-08-10T12:29:15.812Z,2.53
2022-08-10T12:31:52.837Z,2.60
2022-08-10T12:34:33.685Z,2.40
2022-08-10T12:37:13.802Z,2.65
2022-08-10T12:40:24.032Z,2.15
2022-08-10T12:43:12.871Z,2.47
2022-08-10T12:45:51.036Z,2.58
2022-08-10T12:48:30.942Z,2.47
2022-08-10T12:51:05.527Z,2.45
2022-08-10T12:53:45.234Z,2.25
2022-08-10T12:56:40.480Z,2.03
2022-08-10T12:59:12.101Z,2.28
2022-08-10T13:02:09.950Z,2.30
2022-08-10T13:04:34.088Z,2.50
2022-08-10T13:07:05.222Z,2.20
2022-08-10T13:09:54.842Z,2.30
2022-08-10T13:12:39.015Z,1.90
2022-08-10T13:15:45.457Z,2.42
2022-08-10T13:18:17.717Z,2.15
2022-08-10T13:20:52.708Z,2.10
2022-08-10T13:23:27.087Z,2.47
2022-08-10T13:25:59.250Z,2.15
2022-08-10T13:28:39.582Z,2.30
2022-08-10T13:31:22.417Z,2.63
2022-08-10T13:34:43.542Z,2.33
2022-08-10T13:37:11.296Z,2.00
2022-08-10T13:39:58.846Z,2.20
2022-08-10T13:42:34.393Z,2.05
2022-08-10T13:45:12.067Z,1.92
2022-08-10T13:47:48.452Z,2.20
2022-08-10T13:50:33.516Z,2.20
2022-08-10T13:53:13.180Z,2.30
2022-08-10T13:55:54.197Z,2.28
2022-08-10T13:58:33.560Z,2.05
2022-08-10T14:01:18.505Z,2.30
2022-08-10T14:03:48.772Z,2.30
2022-08-10T14:06:29.763Z,2.13
2022-08-10T14:09:01.611Z,2.30
2022-08-10T14:11:32.022Z,2.50
2022-08-10T14:14:02.670Z,2.47
2022-08-10T14:16:34.346Z,2.08
2022-08-10T14:19:11.279Z,2.33
2022-08-10T14:21:41.119Z,2.40
2022-08-10T14:24:21.584Z,2.00
2022-08-10T14:26:51.762Z,2.30
2022-08-10T14:29:23.180Z,1.83
2022-08-10T14:32:00.745Z,2.00
2022-08-10T14:36:15.185Z,2.00
2022-08-10T14:37:34.966Z,2.38
2022-08-10T14:40:09.047Z,2.10
2022-08-10T14:42:44.062Z,2.20
2022-08-10T14:45:21.314Z,2.00
2022-08-10T14:48:01.049Z,2.15
2022-08-10T14:50:33.670Z,2.25
2022-08-10T14:53:09.577Z,2.30
2022-08-10T14:55:57.719Z,2.53
2022-08-10T14:58:31.562Z,2.08
2022-08-10T15:01:00.930Z,2.17
2022-08-10T15:04:01.146Z,2.20
2022-08-10T15:06:31.045Z,2.47
2022-08-10T15:09:12.636Z,1.77
2022-08-10T15:12:15.293Z,2.38
2022-08-10T15:14:42.564Z,2.03
2022-08-10T15:17:13.764Z,2.30
2022-08-10T15:20:04.371Z,2.20
2022-08-10T15:22:38.713Z,2.20
2022-08-10T15:25:19.300Z,2.13
2022-08-10T15:27:57.109Z,2.17
2022-08-10T15:30:34.829Z,2.40
2022-08-10T15:34:03.044Z,1.75
2022-08-10T15:37:02.224Z,2.25
2022-08-10T15:40:26.080Z,2.30
2022-08-10T15:42:35.085Z,2.00
2022-08-10T15:45:04.127Z,2.20
2022-08-10T15:47:45.605Z,2.40
2022-08-10T15:50:19.025Z,2.10
2022-08-10T15:53:02.188Z,2.55
2022-08-10T15:55:44.036Z,2.22
2022-08-10T15:58:20.391Z,2.38
2022-08-10T16:02:13.066Z,2.55
2022-08-10T16:04:08.082Z,2.67
2022-08-10T16:06:42.053Z,2.17
2022-08-10T16:10:23.637Z,2.33
2022-08-10T16:12:09.493Z,2.50
2022-08-10T16:14:39.305Z,2.28
2022-08-10T16:17:11.780Z,4.25
2022-08-10T16:19:48.721Z,2.90
2022-08-10T16:22:35.750Z,2.40
2022-08-10T16:25:15.100Z,2.03
2022-08-10T16:27:45.026Z,2.45
2022-08-10T16:30:14.075Z,1.98
2022-08-10T16:32:44.967Z,2.30
2022-08-10T16:35:20.637Z,3.13
2022-08-10T16:37:58.667Z,3.15
2022-08-10T16:40:30.984Z,3.65
2022-08-10T16:43:02.610Z,2.17
2022-08-10T16:45:34.232Z,2.80
2022-08-10T16:48:03.363Z,2.20
2022-08-10T16:50:36.568Z,2.30
2022-08-10T16:53:07.314Z,2.20
2022-08-10T16:55:49.125Z,2.47
2022-08-10T16:58:21.982Z,2.50
2022-08-10T17:00:52.231Z,2.20
2022-08-10T17:04:08.356Z,2.17
2022-08-10T17:06:21.961Z,2.30
2022-08-10T17:08:54.071Z,2.15
2022-08-10T17:11:29.774Z,1.90
2022-08-10T17:13:59.096Z,1.83
2022-08-10T17:16:34.269Z,2.00
2022-08-10T17:19:04.099Z,1.80
2022-08-10T17:21:38.210Z,2.03
2022-08-10T17:24:22.511Z,2.03
2022-08-10T17:26:52.801Z,2.10
2022-08-10T17:29:59.010Z,2.20
2022-08-10T17:32:19.625Z,2.08
2022-08-10T17:34:52.568Z,2.20
2022-08-10T17:37:25.547Z,2.58
2022-08-10T17:39:58.734Z,2.30
2022-08-10T17:42:28.903Z,2.70
2022-08-10T17:44:59.014Z,2.20
2022-08-10T17:47:28.488Z,2.40
2022-08-10T17:50:01.425Z,2.80
2022-08-10T17:52:33.491Z,4.00
2022-08-10T17:55:04.816Z,2.88
2022-08-10T17:57:38.701Z,2.40
2022-08-10T18:00:13.485Z,2.55
2022-08-10T18:02:44.948Z,2.70
2022-08-10T18:05:14.501Z,2.40
2022-08-10T18:07:48.202Z,2.50
2022-08-10T18:10:19.769Z,2.35
2022-08-10T18:12:53.767Z,2.30
2022-08-10T18:15:27.545Z,2.08
2022-08-10T18:18:00.290Z,2.58
2022-08-10T18:20:35.603Z,2.50
2022-08-10T18:23:04.874Z,2.60
2022-08-10T18:25:35.624Z,2.28
2022-08-10T18:28:10.626Z,3.10
2022-08-10T18:30:46.250Z,2.55
2022-08-10T18:33:16.433Z,2.30
2022-08-10T18:35:46.698Z,2.22
2022-08-10T18:38:17.290Z,3.30
2022-08-10T18:40:52.558Z,2.75
2022-08-10T18:44:05.018Z,2.47
2022-08-10T18:46:21.011Z,2.42
2022-08-10T18:48:54.302Z,2.50
2022-08-10T18:51:26.514Z,3.05
2022-08-10T18:53:59.340Z,2.40
2022-08-10T18:56:49.018Z,2.90
2022-08-10T19:00:07.432Z,2.33
2022-08-10T19:02:47.115Z,3.10
2022-08-10T19:05:31.563Z,2.80
2022-08-10T19:08:30.015Z,2.80
2022-08-10T19:11:04.823Z,2.85
2022-08-10T19:13:48.799Z,2.53
2022-08-10T19:16:35.724Z,2.80
2022-08-10T19:19:22.790Z,2.90
2022-08-10T19:22:03.307Z,2.63
2022-08-10T19:24:44.738Z,2.60
2022-08-10T19:27:21.706Z,2.40
2022-08-10T19:30:10.901Z,2.45
2022-08-10T19:33:03.574Z,2.70
2022-08-10T19:36:03.673Z,2.50
2022-08-10T19:38:47.004Z,2.20
2022-08-10T19:41:32.372Z,2.70
2022-08-10T19:44:07.943Z,2.30
2022-08-10T19:46:41.018Z,2.45
2022-08-10T19:49:23.715Z,2.45
2022-08-10T19:51:57.766Z,2.67
2022-08-10T19:54:37.164Z,2.50
2022-08-10T19:57:12.955Z,2.60
2022-08-10T20:00:15.165Z,2.58
2022-08-10T20:02:52.290Z,2.17
2022-08-10T20:05:31.258Z,2.33
2022-08-10T20:08:06.598Z,2.50
2022-08-10T20:10:44.287Z,2.78
2022-08-10T20:13:20.273Z,2.20
2022-08-10T20:15:58.260Z,2.08
2022-08-10T20:18:34.828Z,2.42
2022-08-10T20:21:12.451Z,2.22
2022-08-10T20:23:55.050Z,2.25
2022-08-10T20:26:28.050Z,2.22
2022-08-10T20:29:06.469Z,2.65
2022-08-10T20:31:42.117Z,2.60
2022-08-10T20:34:18.164Z,2.17
2022-08-10T20:36:58.109Z,2.60
2022-08-10T20:39:43.008Z,2.50
2022-08-10T20:42:19.766Z,2.80
2022-08-10T20:45:00.073Z,2.55
2022-08-10T20:47:54.284Z,2.47
2022-08-10T20:50:32.931Z,2.20
2022-08-10T20:53:09.442Z,2.90
2022-08-10T20:55:54.320Z,2.50
2022-08-10T20:58:51.433Z,2.70
2022-08-10T21:01:26.223Z,2.70
2022-08-10T21:04:21.176Z,2.40
2022-08-10T21:07:07.564Z,2.40
2022-08-10T21:10:07.362Z,2.80
2022-08-10T21:13:06.499Z,2.58
2022-08-10T21:15:56.478Z,2.38
2022-08-10T21:18:43.730Z,2.67
2022-08-10T21:21:41.670Z,3.10
2022-08-10T21:24:25.719Z,2.25
2022-08-10T21:27:08.237Z,3.05
2022-08-10T21:29:55.893Z,2.90
2022-08-10T21:32:39.867Z,2.67
2022-08-10T21:35:36.970Z,2.83
2022-08-10T21:38:21.349Z,2.80
2022-08-10T21:41:57.095Z,3.25
2022-08-10T21:44:44.956Z,2.80
2022-08-10T21:48:16.553Z,3.00
2022-08-10T21:51:00.362Z,2.80
2022-08-10T21:53:57.855Z,2.90
2022-08-10T21:56:50.935Z,2.90
2022-08-10T21:59:47.956Z,2.92
2022-08-10T22:02:40.705Z,2.85
2022-08-10T22:05:42.493Z,3.25
2022-08-10T22:08:31.833Z,2.88
2022-08-10T22:11:21.648Z,2.53
2022-08-10T22:14:09.307Z,3.05
2022-08-10T22:17:04.902Z,3.30
2022-08-10T22:19:54.954Z,3.28
2022-08-10T22:22:56.479Z,3.10
2022-08-10T22:25:55.724Z,3.38
2022-08-10T22:28:48.600Z,3.25
2022-08-10T22:31:49.699Z,3.08
2022-08-10T22:35:07.892Z,3.03
2022-08-10T22:38:07.948Z,2.70
2022-08-10T22:40:54.048Z,2.80
2022-08-10T22:43:46.505Z,3.22
2022-08-10T22:46:37.500Z,2.88
2022-08-10T22:49:05.076Z,3.15
2022-08-10T22:51:38.464Z,2.92
2022-08-10T22:54:33.641Z,2.83
2022-08-10T22:57:21.235Z,2.92
2022-08-10T22:59:50.781Z,3.10
2022-08-10T23:02:29.476Z,3.15
2022-08-10T23:05:07.356Z,2.90
2022-08-10T23:07:42.579Z,3.40
2022-08-10T23:10:15.206Z,3.28
2022-08-10T23:12:49.604Z,3.05
2022-08-10T23:15:41.724Z,2.95
2022-08-10T23:18:33.142Z,2.65
2022-08-10T23:21:02.691Z,2.75
2022-08-10T23:23:37.704Z,2.83
2022-08-10T23:26:11.506Z,2.55
2022-08-10T23:28:59.175Z,2.55
2022-08-10T23:31:58.289Z,3.10
2022-08-10T23:34:29.503Z,3.38
2022-08-10T23:37:01.079Z,3.67
2022-08-10T23:39:33.967Z,3.53
2022-08-10T23:42:07.907Z,3.20
2022-08-10T23:44:38.943Z,3.35
2022-08-10T23:47:09.015Z,3.92
2022-08-10T23:49:39.908Z,4.05
2022-08-10T23:52:13.879Z,3.85
2022-08-10T23:54:49.409Z,3.85
2022-08-10T23:57:21.260Z,3.30
2022-08-10T23:59:59.235Z,3.60
